Time;durP1;ratioP1;P1;durP2;ratioP2;P2;SDS_P1;SDS_P2;PMS_P1;PMS_P2;Temp;Humidity;BMP_temperature;BMP_pressure;BME280_temperature;BME280_humidity;BME280_pressure;Samples;Min_cycle;Max_cycle;Signal;HPM_P1;HPM_P2
2023/03/09 00:02:09;;;;;;;;;;;11.30;99.90;;;;;;5142134;27;19980;-60
2023/03/09 00:04:35;;;;;;;;;;;11.30;99.90;;;;;;5142145;27;19928;-60
2023/03/09 00:07:01;;;;;;;;;;;11.30;99.90;;;;;;5142038;27;20390;-60
2023/03/09 00:09:27;;;;;;;;;;;11.30;99.90;;;;;;5142245;27;19907;-60
2023/03/09 00:11:52;;;;;;;;;;;11.30;99.90;;;;;;5141931;27;19972;-61
2023/03/09 00:14:21;;;;;;;;;;;11.30;99.90;;;;;;5142031;27;20000;-60
2023/03/09 00:16:46;;;;;;;;;;;11.30;99.90;;;;;;5142049;27;19952;-60
2023/03/09 00:19:12;;;;;;;;;;;11.30;99.90;;;;;;5142301;27;19912;-60
2023/03/09 00:21:39;;;;;;;;;;;11.30;99.90;;;;;;5141960;27;19976;-60
2023/03/09 00:24:06;;;;;;;;;;;11.30;99.90;;;;;;5141385;27;19908;-60
2023/03/09 00:26:34;;;;;;;;;;;11.30;99.90;;;;;;5141847;27;19907;-60
2023/03/09 00:28:59;;;;;;;;;;;11.30;99.90;;;;;;5141167;27;19919;-60
2023/03/09 00:31:25;;;;;;;;;;;11.30;99.90;;;;;;5141727;27;19908;-60
2023/03/09 00:33:50;;;;;;;;;;;11.30;99.90;;;;;;5141682;27;19911;-60
2023/03/09 00:36:16;;;;;;;;;;;11.30;99.90;;;;;;5141709;27;19950;-60
2023/03/09 00:38:42;;;;;;;;;;;11.30;99.90;;;;;;5141907;27;19952;-60
2023/03/09 00:41:07;;;;;;;;;;;11.30;99.90;;;;;;5141565;27;20056;-60
2023/03/09 00:43:33;;;;;;;;;;;11.30;99.90;;;;;;5141680;27;20350;-60
2023/03/09 00:45:59;;;;;;;;;;;11.30;99.90;;;;;;5141441;27;19908;-60
2023/03/09 00:48:25;;;;;;;;;;;11.30;99.90;;;;;;5141428;27;19912;-60
2023/03/09 00:50:50;;;;;;;;;;;11.40;99.90;;;;;;5141357;27;19915;-60
2023/03/09 00:53:16;;;;;;;;;;;11.30;99.90;;;;;;5140976;27;19956;-60
2023/03/09 00:55:42;;;;;;;;;;;11.30;99.90;;;;;;5141422;27;19919;-60
2023/03/09 00:58:07;;;;;;;;;;;11.30;99.90;;;;;;5141029;27;19915;-60
2023/03/09 01:00:33;;;;;;;;;;;11.40;99.90;;;;;;5141229;27;19903;-60
2023/03/09 01:02:59;;;;;;;;;;;11.40;99.90;;;;;;5140979;27;19914;-60
2023/03/09 01:05:25;;;;;;;;;;;11.40;99.90;;;;;;5140733;27;19951;-60
2023/03/09 01:07:50;;;;;;;;;;;11.40;99.90;;;;;;5141086;27;19908;-60
2023/03/09 01:10:16;;;;;;;;;;;11.40;99.90;;;;;;5141069;27;20255;-60
2023/03/09 01:12:42;;;;;;;;;;;11.40;99.90;;;;;;5140999;27;20001;-60
2023/03/09 01:15:08;;;;;;;;;;;11.40;99.90;;;;;;5140688;27;19916;-60
2023/03/09 01:17:34;;;;;;;;;;;11.40;99.90;;;;;;5140984;27;19908;-60
2023/03/09 01:20:00;;;;;;;;;;;11.40;99.90;;;;;;5140812;27;19915;-60
2023/03/09 01:22:26;;;;;;;;;;;11.40;99.90;;;;;;5140577;27;19908;-60
2023/03/09 01:24:51;;;;;;;;;;;11.40;99.90;;;;;;5140680;27;19912;-60
2023/03/09 01:27:17;;;;;;;;;;;11.40;99.90;;;;;;5140765;27;19918;-60
2023/03/09 01:29:42;;;;;;;;;;;11.40;99.90;;;;;;5140328;27;19930;-60
2023/03/09 01:32:08;;;;;;;;;;;11.30;99.90;;;;;;5140373;27;19911;-61
2023/03/09 01:34:33;;;;;;;;;;;11.40;99.90;;;;;;5140303;27;19911;-60
2023/03/09 01:36:59;;;;;;;;;;;11.40;99.90;;;;;;5140401;27;19907;-60
2023/03/09 01:39:25;;;;;;;;;;;11.40;99.90;;;;;;5140254;27;19915;-60
2023/03/09 01:41:50;;;;;;;;;;;11.40;99.90;;;;;;5140670;27;20312;-60
2023/03/09 01:44:16;;;;;;;;;;;11.40;99.90;;;;;;5140141;27;19913;-60
2023/03/09 01:46:46;;;;;;;;;;;11.40;99.90;;;;;;5140579;27;19908;-60
2023/03/09 01:49:17;;;;;;;;;;;11.40;99.90;;;;;;5140048;27;19970;-61
2023/03/09 01:51:43;;;;;;;;;;;11.40;99.90;;;;;;5140154;27;19912;-60
2023/03/09 01:54:10;;;;;;;;;;;11.40;99.90;;;;;;5139873;27;19933;-60
2023/03/09 01:56:37;;;;;;;;;;;11.40;99.90;;;;;;5140103;27;19908;-60
2023/03/09 01:59:03;;;;;;;;;;;11.50;99.90;;;;;;5140051;27;19955;-60
2023/03/09 02:01:29;;;;;;;;;;;11.50;99.90;;;;;;5140058;27;19956;-60
2023/03/09 02:03:57;;;;;;;;;;;11.50;99.90;;;;;;5139736;27;19908;-60
2023/03/09 02:06:23;;;;;;;;;;;11.50;99.90;;;;;;5140062;27;19951;-60
2023/03/09 02:08:55;;;;;;;;;;;11.50;99.90;;;;;;5139628;27;19987;-60
2023/03/09 02:11:21;;;;;;;;;;;11.50;99.90;;;;;;5139650;27;19907;-60
2023/03/09 02:13:48;;;;;;;;;;;11.50;99.90;;;;;;5139883;27;20488;-60
2023/03/09 02:16:14;;;;;;;;;;;11.50;99.90;;;;;;5139972;27;19908;-60
2023/03/09 02:18:40;;;;;;;;;;;11.50;99.90;;;;;;5140012;27;20266;-60
2023/03/09 02:21:05;;;;;;;;;;;11.50;99.90;;;;;;5139484;27;19907;-60
2023/03/09 02:23:34;;;;;;;;;;;11.50;99.90;;;;;;5139469;27;19957;-60
2023/03/09 02:26:08;;;;;;;;;;;11.50;99.90;;;;;;5139438;27;19911;-60
2023/03/09 02:28:34;;;;;;;;;;;11.50;99.90;;;;;;5139378;27;20066;-60
2023/03/09 02:31:00;;;;;;;;;;;11.50;99.90;;;;;;5139515;27;19962;-60
2023/03/09 02:33:27;;;;;;;;;;;11.50;99.90;;;;;;5139596;27;19911;-60
2023/03/09 02:35:54;;;;;;;;;;;11.50;99.90;;;;;;5139306;27;19930;-60
2023/03/09 02:38:19;;;;;;;;;;;11.50;99.90;;;;;;5139524;27;19908;-60
2023/03/09 02:40:45;;;;;;;;;;;11.50;99.90;;;;;;5139234;27;19908;-60
2023/03/09 02:43:11;;;;;;;;;;;11.50;99.90;;;;;;5139543;27;19907;-60
2023/03/09 02:45:37;;;;;;;;;;;11.50;99.90;;;;;;5139386;28;19907;-60
2023/03/09 02:48:02;;;;;;;;;;;11.50;99.90;;;;;;5138719;27;19942;-60
2023/03/09 02:50:28;;;;;;;;;;;11.50;99.90;;;;;;5139153;28;19911;-60
2023/03/09 02:52:53;;;;;;;;;;;11.50;99.90;;;;;;5139259;28;19908;-60
2023/03/09 02:55:19;;;;;;;;;;;11.50;99.90;;;;;;5139503;28;19914;-60
2023/03/09 02:57:45;;;;;;;;;;;11.50;99.90;;;;;;5139261;28;19915;-60
2023/03/09 03:00:13;;;;;;;;;;;11.50;99.90;;;;;;5139237;28;19914;-60
2023/03/09 03:02:39;;;;;;;;;;;11.50;99.90;;;;;;5139279;28;19912;-60
2023/03/09 03:05:05;;;;;;;;;;;11.50;99.90;;;;;;5138982;28;19952;-60
2023/03/09 03:07:31;;;;;;;;;;;11.50;99.90;;;;;;5139200;28;19911;-60
2023/03/09 03:09:56;;;;;;;;;;;11.50;99.90;;;;;;5138957;28;19914;-60
2023/03/09 03:12:22;;;;;;;;;;;11.50;99.90;;;;;;5139310;28;19907;-60
2023/03/09 03:14:47;;;;;;;;;;;11.60;99.90;;;;;;5139339;28;19915;-60
2023/03/09 03:17:13;;;;;;;;;;;11.50;99.90;;;;;;5139103;28;20002;-60
2023/03/09 03:19:39;;;;;;;;;;;11.50;99.90;;;;;;5139372;28;20433;-60
2023/03/09 03:22:06;;;;;;;;;;;11.60;99.90;;;;;;5138843;28;19956;-60
2023/03/09 03:24:35;;;;;;;;;;;11.50;99.90;;;;;;5139126;28;19907;-60
2023/03/09 03:27:00;;;;;;;;;;;11.60;99.90;;;;;;5138809;28;20350;-60
2023/03/09 03:29:26;;;;;;;;;;;11.60;99.90;;;;;;5138901;28;19984;-60
2023/03/09 03:31:52;;;;;;;;;;;11.60;99.90;;;;;;5138795;28;19915;-60
2023/03/09 03:34:17;;;;;;;;;;;11.50;99.90;;;;;;5138506;28;19916;-60
2023/03/09 03:36:43;;;;;;;;;;;11.50;99.90;;;;;;5138738;28;19908;-60
2023/03/09 03:39:08;;;;;;;;;;;11.50;99.90;;;;;;5138508;28;20320;-60
2023/03/09 03:41:34;;;;;;;;;;;11.50;99.90;;;;;;5138932;28;19908;-60
2023/03/09 03:44:00;;;;;;;;;;;11.50;99.90;;;;;;5138677;28;19907;-60
2023/03/09 03:46:25;;;;;;;;;;;11.50;99.90;;;;;;5138890;28;19973;-60
2023/03/09 03:48:51;;;;;;;;;;;11.50;99.90;;;;;;5138595;28;19937;-60
2023/03/09 03:51:17;;;;;;;;;;;11.60;99.90;;;;;;5138515;28;19907;-60
2023/03/09 03:53:42;;;;;;;;;;;11.60;99.90;;;;;;5138696;28;19916;-60
2023/03/09 03:56:08;;;;;;;;;;;11.60;99.90;;;;;;5138991;28;19946;-60
2023/03/09 03:58:34;;;;;;;;;;;11.60;99.90;;;;;;5138701;27;19915;-60
2023/03/09 04:01:00;;;;;;;;;;;11.60;99.90;;;;;;5141266;27;19958;-60
2023/03/09 04:03:25;;;;;;;;;;;11.60;99.90;;;;;;5142389;27;19914;-60
2023/03/09 04:05:51;;;;;;;;;;;11.60;99.90;;;;;;5142253;27;20362;-60
2023/03/09 04:08:17;;;;;;;;;;;11.60;99.90;;;;;;5142063;27;19946;-60
2023/03/09 04:10:42;;;;;;;;;;;11.60;99.90;;;;;;5142249;27;19956;-60
2023/03/09 04:13:08;;;;;;;;;;;11.60;99.90;;;;;;5141851;27;19970;-60
2023/03/09 04:15:33;;;;;;;;;;;11.60;99.90;;;;;;5142274;27;19911;-60
2023/03/09 04:17:59;;;;;;;;;;;11.60;99.90;;;;;;5141765;27;20323;-60
2023/03/09 04:20:25;;;;;;;;;;;11.60;99.90;;;;;;5141793;27;19998;-60
2023/03/09 04:22:50;;;;;;;;;;;11.60;99.90;;;;;;5141964;27;20346;-60
2023/03/09 04:25:16;;;;;;;;;;;11.60;99.90;;;;;;5141963;27;19908;-60
2023/03/09 04:27:42;;;;;;;;;;;11.60;99.90;;;;;;5141689;27;19914;-60
2023/03/09 04:30:08;;;;;;;;;;;11.60;99.90;;;;;;5141936;27;19923;-60
2023/03/09 04:32:34;;;;;;;;;;;11.60;99.90;;;;;;5141607;27;20290;-60
2023/03/09 04:34:59;;;;;;;;;;;11.60;99.90;;;;;;5141712;27;19911;-60
2023/03/09 04:37:25;;;;;;;;;;;11.60;99.90;;;;;;5141688;27;19908;-61
2023/03/09 04:39:51;;;;;;;;;;;11.60;99.90;;;;;;5141684;27;19921;-60
2023/03/09 04:42:16;;;;;;;;;;;11.60;99.90;;;;;;5141597;27;19907;-60
2023/03/09 04:44:42;;;;;;;;;;;11.60;99.90;;;;;;5141552;27;19907;-61
2023/03/09 04:47:09;;;;;;;;;;;11.60;99.90;;;;;;5141557;27;19911;-60
2023/03/09 04:49:35;;;;;;;;;;;11.60;99.90;;;;;;5141189;27;20350;-61
2023/03/09 04:52:00;;;;;;;;;;;11.60;99.90;;;;;;5141675;27;19990;-60
2023/03/09 04:54:26;;;;;;;;;;;11.60;99.90;;;;;;5141273;27;19911;-61
2023/03/09 04:56:51;;;;;;;;;;;11.60;99.90;;;;;;5141345;27;19943;-60
2023/03/09 04:59:17;;;;;;;;;;;11.60;99.90;;;;;;5141084;27;19915;-60
2023/03/09 05:01:42;;;;;;;;;;;11.60;99.90;;;;;;5141045;27;20386;-61
2023/03/09 05:04:09;;;;;;;;;;;11.60;99.90;;;;;;5141316;27;19950;-60
2023/03/09 05:06:35;;;;;;;;;;;11.60;99.90;;;;;;5141068;27;19908;-61
2023/03/09 05:09:01;;;;;;;;;;;11.60;99.90;;;;;;5141229;27;20359;-60
2023/03/09 05:11:27;;;;;;;;;;;11.60;99.90;;;;;;5140429;27;20388;-61
2023/03/09 05:13:53;;;;;;;;;;;11.60;99.90;;;;;;5140892;27;19968;-61
2023/03/09 05:16:19;;;;;;;;;;;11.60;99.90;;;;;;5140827;27;20404;-60
2023/03/09 05:18:47;;;;;;;;;;;11.60;99.90;;;;;;5140703;27;20389;-60
2023/03/09 05:21:13;;;;;;;;;;;11.60;99.90;;;;;;5140638;27;19950;-60
2023/03/09 05:23:39;;;;;;;;;;;11.60;99.90;;;;;;5140821;27;19960;-60
2023/03/09 05:26:07;;;;;;;;;;;11.60;99.90;;;;;;5140671;27;20381;-61
2023/03/09 05:28:33;;;;;;;;;;;11.60;99.90;;;;;;5140331;27;19915;-61
2023/03/09 05:30:59;;;;;;;;;;;11.60;99.90;;;;;;5140698;27;19915;-61
2023/03/09 05:33:24;;;;;;;;;;;11.60;99.90;;;;;;5140329;27;20271;-61
2023/03/09 05:35:50;;;;;;;;;;;11.60;99.90;;;;;;5140704;27;19908;-60
2023/03/09 05:38:16;;;;;;;;;;;11.60;99.90;;;;;;5140508;27;19964;-60
2023/03/09 05:40:42;;;;;;;;;;;11.60;99.90;;;;;;5140216;27;19908;-60
2023/03/09 05:43:07;;;;;;;;;;;11.60;99.90;;;;;;5140440;27;19994;-60
2023/03/09 05:45:33;;;;;;;;;;;11.60;99.90;;;;;;5140065;27;19915;-60
2023/03/09 05:47:59;;;;;;;;;;;11.60;99.90;;;;;;5140548;27;19962;-60
2023/03/09 05:50:24;;;;;;;;;;;11.60;99.90;;;;;;5140202;27;19914;-60
2023/03/09 05:52:50;;;;;;;;;;;11.60;99.90;;;;;;5140059;27;19908;-60
2023/03/09 05:55:16;;;;;;;;;;;11.60;99.90;;;;;;5139487;27;20002;-60
2023/03/09 05:57:41;;;;;;;;;;;11.60;99.90;;;;;;5139967;27;20010;-60
2023/03/09 06:00:09;;;;;;;;;;;11.60;99.90;;;;;;5139598;27;19907;-60
2023/03/09 06:02:35;;;;;;;;;;;11.60;99.90;;;;;;5140108;27;19977;-60
2023/03/09 06:05:01;;;;;;;;;;;11.60;99.90;;;;;;5139975;27;19908;-61
2023/03/09 06:07:29;;;;;;;;;;;11.60;99.90;;;;;;5140094;27;19908;-60
2023/03/09 06:09:55;;;;;;;;;;;11.60;99.90;;;;;;5140094;27;19908;-60
2023/03/09 06:12:21;;;;;;;;;;;11.60;99.90;;;;;;5139565;27;20009;-60
2023/03/09 06:14:47;;;;;;;;;;;11.60;99.90;;;;;;5139733;27;19922;-61
2023/03/09 06:17:13;;;;;;;;;;;11.60;99.90;;;;;;5139636;27;19930;-60
2023/03/09 06:19:39;;;;;;;;;;;11.60;99.90;;;;;;5139297;27;19907;-60
2023/03/09 06:22:04;;;;;;;;;;;11.60;99.90;;;;;;5138618;27;19908;-60
2023/03/09 06:24:30;;;;;;;;;;;11.60;99.90;;;;;;5139635;27;20362;-60
2023/03/09 06:26:56;;;;;;;;;;;11.60;99.90;;;;;;5139211;27;19915;-60
2023/03/09 06:29:22;;;;;;;;;;;11.60;99.90;;;;;;5139218;27;19931;-60
2023/03/09 06:31:47;;;;;;;;;;;11.60;99.90;;;;;;5139491;27;20338;-61
2023/03/09 06:34:13;;;;;;;;;;;11.60;99.90;;;;;;5139186;27;19911;-61
2023/03/09 06:36:39;;;;;;;;;;;11.60;99.90;;;;;;5139077;27;19961;-61
2023/03/09 06:39:04;;;;;;;;;;;11.60;99.90;;;;;;5138025;27;19972;-60
2023/03/09 06:41:31;;;;;;;;;;;11.60;99.90;;;;;;5138519;27;19907;-60
2023/03/09 06:43:57;;;;;;;;;;;11.60;99.90;;;;;;5139123;27;19939;-60
2023/03/09 06:46:23;;;;;;;;;;;11.60;99.90;;;;;;5138912;28;19915;-61
2023/03/09 06:48:49;;;;;;;;;;;11.60;99.90;;;;;;5138668;28;19918;-61
2023/03/09 06:51:14;;;;;;;;;;;11.60;99.90;;;;;;5138690;28;19908;-61
2023/03/09 06:53:40;;;;;;;;;;;11.60;99.90;;;;;;5139112;28;19911;-60
2023/03/09 06:56:06;;;;;;;;;;;11.60;99.90;;;;;;5138732;28;19911;-61
2023/03/09 06:58:33;;;;;;;;;;;11.60;99.90;;;;;;5120047;28;19994;-60
2023/03/09 07:01:04;;;;;;;;;;;11.60;99.90;;;;;;5138615;28;19908;-61
2023/03/09 07:03:30;;;;;;;;;;;11.60;99.90;;;;;;5138674;28;19919;-60
2023/03/09 07:05:56;;;;;;;;;;;11.60;99.90;;;;;;5119523;28;20346;-61
2023/03/09 07:08:22;;;;;;;;;;;11.60;99.90;;;;;;5138892;28;19954;-61
2023/03/09 07:10:48;;;;;;;;;;;11.60;99.90;;;;;;5138380;28;19914;-62
2023/03/09 07:13:14;;;;;;;;;;;11.60;99.90;;;;;;5138586;28;19907;-61
2023/03/09 07:15:40;;;;;;;;;;;11.60;99.90;;;;;;5138594;28;19978;-60
2023/03/09 07:18:06;;;;;;;;;;;11.70;99.90;;;;;;5119685;28;19915;-61
2023/03/09 07:20:32;;;;;;;;;;;11.70;99.90;;;;;;5138272;28;19960;-61
2023/03/09 07:22:57;;;;;;;;;;;11.60;99.90;;;;;;5138334;28;19990;-60
2023/03/09 07:25:23;;;;;;;;;;;11.70;99.90;;;;;;5119826;28;19908;-61
2023/03/09 07:27:49;;;;;;;;;;;11.70;99.90;;;;;;5137964;28;19911;-60
2023/03/09 07:30:14;;;;;;;;;;;11.70;99.90;;;;;;5137719;28;20361;-61
2023/03/09 07:32:40;;;;;;;;;;;11.70;99.90;;;;;;5138398;28;19986;-60
2023/03/09 07:35:06;;;;;;;;;;;11.70;99.90;;;;;;5141962;27;19912;-61
2023/03/09 07:37:32;;;;;;;;;;;11.70;99.90;;;;;;5142391;27;19907;-60
2023/03/09 07:39:57;;;;;;;;;;;11.70;99.90;;;;;;5142083;27;19915;-60
2023/03/09 07:42:23;;;;;;;;;;;11.80;99.90;;;;;;5142383;27;19988;-61
2023/03/09 07:44:48;;;;;;;;;;;11.80;99.90;;;;;;5142432;27;19962;-61
2023/03/09 07:47:14;;;;;;;;;;;11.80;99.90;;;;;;5141857;27;19990;-60
2023/03/09 07:49:40;;;;;;;;;;;11.80;99.90;;;;;;5142571;27;19930;-60
2023/03/09 07:52:05;;;;;;;;;;;11.80;99.90;;;;;;5142186;27;20246;-61
2023/03/09 07:54:32;;;;;;;;;;;11.80;99.90;;;;;;5142004;27;19916;-60
2023/03/09 07:56:58;;;;;;;;;;;11.80;99.90;;;;;;5141926;27;20393;-61
2023/03/09 07:59:23;;;;;;;;;;;11.80;99.90;;;;;;5142075;27;19908;-60
2023/03/09 08:01:49;;;;;;;;;;;11.80;99.90;;;;;;5142144;27;19908;-61
2023/03/09 08:04:16;;;;;;;;;;;11.80;99.90;;;;;;5141898;27;19915;-60
2023/03/09 08:06:41;;;;;;;;;;;11.80;99.90;;;;;;5141757;27;19956;-60
2023/03/09 08:09:12;;;;;;;;;;;11.80;99.90;;;;;;5142201;27;19912;-60
2023/03/09 08:11:37;;;;;;;;;;;11.80;99.90;;;;;;5141782;27;19908;-60
2023/03/09 08:14:03;;;;;;;;;;;11.80;99.90;;;;;;5141573;27;19918;-60
2023/03/09 08:16:29;;;;;;;;;;;11.90;99.90;;;;;;5141674;27;19908;-60
2023/03/09 08:18:55;;;;;;;;;;;11.80;99.90;;;;;;5141576;27;19953;-60
2023/03/09 08:21:21;;;;;;;;;;;11.90;99.90;;;;;;5141699;27;20321;-60
2023/03/09 08:23:46;;;;;;;;;;;11.90;99.90;;;;;;5141040;27;20004;-60
2023/03/09 08:26:15;;;;;;;;;;;11.90;99.90;;;;;;5141231;27;19908;-61
2023/03/09 08:28:41;;;;;;;;;;;11.90;99.90;;;;;;5141215;27;19915;-60
2023/03/09 08:31:10;;;;;;;;;;;11.90;99.90;;;;;;5141569;27;20035;-60
2023/03/09 08:33:36;;;;;;;;;;;11.90;99.90;;;;;;5141127;27;19915;-61
2023/03/09 08:36:12;;;;;;;;;;;11.80;99.90;;;;;;5141300;27;20278;-61
2023/03/09 08:38:38;;;;;;;;;;;11.80;99.90;;;;;;5141113;27;20291;-61
2023/03/09 08:41:03;;;;;;;;;;;11.90;99.90;;;;;;5141479;27;19986;-61
2023/03/09 08:43:29;;;;;;;;;;;11.90;99.90;;;;;;5141276;27;19907;-60
2023/03/09 08:45:54;;;;;;;;;;;11.90;99.90;;;;;;5140687;27;19908;-60
2023/03/09 08:48:20;;;;;;;;;;;11.90;99.90;;;;;;5140977;27;19908;-61
2023/03/09 08:50:46;;;;;;;;;;;11.90;99.90;;;;;;5141370;27;19907;-60
2023/03/09 08:53:11;;;;;;;;;;;11.90;99.90;;;;;;5140810;27;19907;-60
2023/03/09 08:55:37;;;;;;;;;;;11.90;99.90;;;;;;5141118;27;19914;-60
2023/03/09 08:58:02;;;;;;;;;;;11.90;99.90;;;;;;5140976;27;19907;-60
2023/03/09 09:00:28;;;;;;;;;;;11.90;99.90;;;;;;5141011;27;20240;-60
2023/03/09 09:02:54;;;;;;;;;;;11.90;99.90;;;;;;5140701;27;19908;-61
2023/03/09 09:05:19;;;;;;;;;;;11.90;99.90;;;;;;5140726;27;20371;-60
2023/03/09 09:07:45;;;;;;;;;;;11.90;99.90;;;;;;5140591;27;19915;-61
2023/03/09 09:10:11;;;;;;;;;;;11.90;99.90;;;;;;5140504;27;20045;-61
2023/03/09 09:12:37;;;;;;;;;;;11.90;99.90;;;;;;5140679;27;19907;-60
2023/03/09 09:15:08;;;;;;;;;;;12.00;99.90;;;;;;5140415;27;19911;-61
2023/03/09 09:17:35;;;;;;;;;;;12.00;99.90;;;;;;5140144;27;19970;-61
2023/03/09 09:20:01;;;;;;;;;;;12.00;99.90;;;;;;5140496;27;19946;-60
2023/03/09 09:22:27;;;;;;;;;;;12.00;99.90;;;;;;5140285;27;19929;-60
2023/03/09 09:24:53;;;;;;;;;;;12.00;99.90;;;;;;5140265;27;20381;-61
2023/03/09 09:27:19;;;;;;;;;;;12.00;99.90;;;;;;5140685;27;20378;-60
2023/03/09 09:29:45;;;;;;;;;;;12.00;99.90;;;;;;5140085;27;19919;-60
2023/03/09 09:32:11;;;;;;;;;;;12.10;99.90;;;;;;5140052;27;19915;-60
2023/03/09 09:34:37;;;;;;;;;;;12.10;99.90;;;;;;5140037;27;19990;-60
2023/03/09 09:37:03;;;;;;;;;;;12.10;99.90;;;;;;5140087;27;19914;-61
2023/03/09 09:39:29;;;;;;;;;;;12.10;99.90;;;;;;5140249;27;19945;-60
2023/03/09 09:41:59;;;;;;;;;;;12.10;99.90;;;;;;5139900;27;19907;-60
2023/03/09 09:44:29;;;;;;;;;;;12.10;99.90;;;;;;5140048;27;19957;-60
2023/03/09 09:46:56;;;;;;;;;;;12.10;99.90;;;;;;5139967;27;19915;-60
2023/03/09 09:49:26;;;;;;;;;;;12.10;99.90;;;;;;5140046;27;19911;-60
2023/03/09 09:51:55;;;;;;;;;;;12.10;99.90;;;;;;5139448;27;19908;-61
2023/03/09 09:54:24;;;;;;;;;;;12.10;99.90;;;;;;5139830;27;19919;-60
2023/03/09 09:56:55;;;;;;;;;;;12.10;99.90;;;;;;5138812;27;20336;-61
2023/03/09 09:59:30;;;;;;;;;;;12.10;99.90;;;;;;5139616;27;19915;-61
2023/03/09 10:01:55;;;;;;;;;;;12.10;99.90;;;;;;5139784;27;19908;-60
2023/03/09 10:04:26;;;;;;;;;;;12.10;99.90;;;;;;5139669;27;19918;-60
2023/03/09 10:06:52;;;;;;;;;;;12.10;99.90;;;;;;5139541;27;19942;-61
2023/03/09 10:09:26;;;;;;;;;;;12.10;99.90;;;;;;5139575;27;19960;-61
2023/03/09 10:11:54;;;;;;;;;;;12.10;99.90;;;;;;5139244;27;20271;-61
2023/03/09 10:14:24;;;;;;;;;;;12.10;99.90;;;;;;5139486;27;19999;-60
2023/03/09 10:17:02;;;;;;;;;;;12.10;99.90;;;;;;5139261;27;20374;-60
2023/03/09 10:19:38;;;;;;;;;;;12.10;99.90;;;;;;5139447;27;19919;-60
2023/03/09 10:22:16;;;;;;;;;;;12.10;99.90;;;;;;5139791;27;19931;-61
2023/03/09 10:24:46;;;;;;;;;;;12.10;99.90;;;;;;5139204;27;19982;-61
2023/03/09 10:27:15;;;;;;;;;;;12.20;99.90;;;;;;5139115;27;19990;-60
2023/03/09 10:29:53;;;;;;;;;;;12.20;99.90;;;;;;5138687;27;19919;-61
2023/03/09 10:32:37;;;;;;;;;;;12.20;99.90;;;;;;5139321;27;19915;-61
2023/03/09 10:35:18;;;;;;;;;;;12.20;99.90;;;;;;5139232;27;19919;-61
2023/03/09 10:37:44;;;;;;;;;;;12.20;99.90;;;;;;5139050;27;19930;-61
2023/03/09 10:40:16;;;;;;;;;;;12.30;99.90;;;;;;5139129;27;19914;-61
2023/03/09 10:42:41;;;;;;;;;;;12.30;99.90;;;;;;5138977;27;19960;-61
2023/03/09 10:45:16;;;;;;;;;;;12.30;99.90;;;;;;5139101;27;19911;-61
2023/03/09 10:47:54;;;;;;;;;;;12.30;99.90;;;;;;5139199;27;19907;-60
2023/03/09 10:50:21;;;;;;;;;;;12.40;99.90;;;;;;5138889;28;19908;-61
2023/03/09 10:52:48;;;;;;;;;;;12.40;99.90;;;;;;5120362;28;19911;-61
2023/03/09 10:55:29;;;;;;;;;;;12.40;99.90;;;;;;5138998;28;19912;-60
2023/03/09 10:57:56;;;;;;;;;;;12.40;99.90;;;;;;5138691;28;19907;-61
2023/03/09 11:00:22;;;;;;;;;;;12.40;99.90;;;;;;5138958;28;19936;-61
2023/03/09 11:02:59;;;;;;;;;;;12.40;99.90;;;;;;5139135;28;19907;-61
2023/03/09 11:05:35;;;;;;;;;;;12.40;99.90;;;;;;5138714;28;19907;-60
2023/03/09 11:08:07;;;;;;;;;;;12.40;99.90;;;;;;5138511;27;20282;-60
2023/03/09 11:10:33;;;;;;;;;;;12.40;99.90;;;;;;5125447;27;20323;-60
2023/03/09 11:13:00;;;;;;;;;;;12.50;99.90;;;;;;5142553;27;19955;-61
2023/03/09 11:15:30;;;;;;;;;;;12.50;99.90;;;;;;5142473;27;19961;-61
2023/03/09 11:17:57;;;;;;;;;;;12.50;99.90;;;;;;5142435;27;20259;-60
2023/03/09 11:20:23;;;;;;;;;;;12.60;99.90;;;;;;5142947;27;19952;-60
2023/03/09 11:22:58;;;;;;;;;;;12.90;99.90;;;;;;5142357;27;19911;-60
2023/03/09 11:25:42;;;;;;;;;;;13.10;99.90;;;;;;5143033;27;19931;-61
2023/03/09 11:28:26;;;;;;;;;;;13.30;99.90;;;;;;5142536;27;19908;-60
2023/03/09 11:30:53;;;;;;;;;;;13.40;99.90;;;;;;5142149;27;19925;-60
2023/03/09 11:33:19;;;;;;;;;;;13.50;99.90;;;;;;5142176;27;19912;-61
2023/03/09 11:35:48;;;;;;;;;;;13.60;99.90;;;;;;5142311;27;19914;-61
2023/03/09 11:38:15;;;;;;;;;;;13.50;99.90;;;;;;5142575;27;19915;-60
2023/03/09 11:40:41;;;;;;;;;;;13.50;99.90;;;;;;5142155;27;20001;-60
2023/03/09 11:43:10;;;;;;;;;;;13.50;99.90;;;;;;5142437;27;20359;-60
2023/03/09 11:45:37;;;;;;;;;;;13.50;99.90;;;;;;5142634;27;19915;-60
2023/03/09 11:48:07;;;;;;;;;;;13.50;99.90;;;;;;5141961;27;19952;-61
2023/03/09 11:50:38;;;;;;;;;;;13.40;99.90;;;;;;5142431;27;19947;-60
2023/03/09 11:53:05;;;;;;;;;;;13.40;99.90;;;;;;5142027;27;20006;-60
2023/03/09 11:55:51;;;;;;;;;;;13.40;99.90;;;;;;5141939;27;19961;-61
2023/03/09 11:58:22;;;;;;;;;;;13.30;99.90;;;;;;5141221;27;20354;-60
2023/03/09 12:00:51;;;;;;;;;;;13.30;99.90;;;;;;5142409;27;19908;-60
2023/03/09 12:03:19;;;;;;;;;;;13.30;99.90;;;;;;5141834;27;20276;-60
2023/03/09 12:05:47;;;;;;;;;;;13.30;99.90;;;;;;5142025;27;19907;-61
2023/03/09 12:08:12;;;;;;;;;;;13.30;99.90;;;;;;5141934;27;19956;-60
2023/03/09 12:10:41;;;;;;;;;;;13.40;99.90;;;;;;5141912;27;19978;-61
2023/03/09 12:13:18;;;;;;;;;;;13.50;99.90;;;;;;5141858;27;20295;-61
2023/03/09 12:16:00;;;;;;;;;;;13.50;99.90;;;;;;5141793;27;19912;-60
2023/03/09 12:18:28;;;;;;;;;;;13.50;99.90;;;;;;5141693;27;19914;-61
2023/03/09 12:20:55;;;;;;;;;;;13.50;99.90;;;;;;5140512;27;19907;-61
2023/03/09 12:23:32;;;;;;;;;;;13.50;99.90;;;;;;5141484;27;19908;-61
2023/03/09 12:25:58;;;;;;;;;;;13.40;99.90;;;;;;5141738;27;19939;-61
2023/03/09 12:28:24;;;;;;;;;;;13.40;99.90;;;;;;5141638;27;20270;-61
2023/03/09 12:30:54;;;;;;;;;;;13.30;99.90;;;;;;5141831;27;19915;-61
2023/03/09 12:33:38;;;;;;;;;;;13.30;99.90;;;;;;5141308;27;19950;-61
2023/03/09 12:36:20;;;;;;;;;;;13.20;99.90;;;;;;5141102;27;19915;-61
2023/03/09 12:38:45;;;;;;;;;;;13.10;99.90;;;;;;5141080;27;19939;-61
2023/03/09 12:41:26;;;;;;;;;;;13.10;99.90;;;;;;5141278;27;19908;-61
2023/03/09 12:43:52;;;;;;;;;;;13.00;99.90;;;;;;5141004;27;19947;-61
2023/03/09 12:46:36;;;;;;;;;;;13.00;99.90;;;;;;5141343;27;19908;-61
2023/03/09 12:49:02;;;;;;;;;;;12.90;99.90;;;;;;5141108;27;19927;-61
2023/03/09 12:51:34;;;;;;;;;;;12.80;99.90;;;;;;5140907;27;20327;-61
2023/03/09 12:54:17;;;;;;;;;;;12.80;99.90;;;;;;5140861;27;19975;-61
2023/03/09 12:56:43;;;;;;;;;;;12.70;99.90;;;;;;5140764;27;19914;-61
2023/03/09 12:59:09;;;;;;;;;;;12.60;99.90;;;;;;5141036;27;19923;-61
2023/03/09 13:01:35;;;;;;;;;;;12.60;99.90;;;;;;5140371;27;19908;-61
2023/03/09 13:04:04;;;;;;;;;;;12.60;99.90;;;;;;5140275;27;19956;-61
2023/03/09 13:06:33;;;;;;;;;;;12.60;99.90;;;;;;5140516;27;20004;-61
2023/03/09 13:09:14;;;;;;;;;;;12.60;99.90;;;;;;5140713;27;19943;-61
2023/03/09 13:11:44;;;;;;;;;;;12.50;99.90;;;;;;5140396;27;19907;-61
2023/03/09 13:14:11;;;;;;;;;;;12.50;99.90;;;;;;5140387;27;20244;-61
2023/03/09 13:16:37;;;;;;;;;;;12.50;99.90;;;;;;5121736;27;19955;-61
2023/03/09 13:19:16;;;;;;;;;;;12.50;99.90;;;;;;5140358;27;19908;-61
2023/03/09 13:22:02;;;;;;;;;;;12.50;99.90;;;;;;5140152;27;20354;-61
2023/03/09 13:24:40;;;;;;;;;;;12.50;99.90;;;;;;5125708;27;20010;-61
2023/03/09 13:27:11;;;;;;;;;;;12.50;99.90;;;;;;5139504;27;19911;-61
2023/03/09 13:29:39;;;;;;;;;;;12.50;99.90;;;;;;5140037;27;19923;-61
2023/03/09 13:32:05;;;;;;;;;;;12.60;99.90;;;;;;5139639;27;20010;-61
2023/03/09 13:34:32;;;;;;;;;;;12.60;99.90;;;;;;5140005;27;19939;-61
2023/03/09 13:37:02;;;;;;;;;;;12.60;99.90;;;;;;5139128;27;21223;-61
2023/03/09 13:39:27;;;;;;;;;;;12.60;99.90;;;;;;5140062;27;19908;-61
2023/03/09 13:41:54;;;;;;;;;;;12.70;99.90;;;;;;5140129;27;19907;-61
2023/03/09 13:44:21;;;;;;;;;;;12.70;99.90;;;;;;5140189;27;19907;-61
2023/03/09 13:46:47;;;;;;;;;;;12.70;99.90;;;;;;5139911;27;19908;-61
2023/03/09 13:49:29;;;;;;;;;;;12.80;99.90;;;;;;5139841;27;19912;-61
2023/03/09 13:51:55;;;;;;;;;;;12.90;99.90;;;;;;5139588;27;19913;-61
2023/03/09 13:54:44;;;;;;;;;;;12.90;99.90;;;;;;5139367;27;19917;-61
2023/03/09 13:57:20;;;;;;;;;;;12.90;99.90;;;;;;5128466;27;19998;-61
2023/03/09 13:59:52;;;;;;;;;;;13.00;99.90;;;;;;5139689;27;19930;-61
2023/03/09 14:02:17;;;;;;;;;;;13.00;99.90;;;;;;5139776;27;19914;-61
2023/03/09 14:04:47;;;;;;;;;;;13.10;99.90;;;;;;5139699;27;20349;-61
2023/03/09 14:07:15;;;;;;;;;;;13.10;99.90;;;;;;5139234;27;20006;-61
2023/03/09 14:09:41;;;;;;;;;;;13.10;99.90;;;;;;5139164;27;19907;-61
2023/03/09 14:12:16;;;;;;;;;;;13.20;99.90;;;;;;5139094;27;19930;-61
2023/03/09 14:14:44;;;;;;;;;;;13.10;99.90;;;;;;5139341;27;19964;-61
2023/03/09 14:17:16;;;;;;;;;;;13.10;99.90;;;;;;5139033;27;19915;-61
2023/03/09 14:19:42;;;;;;;;;;;13.10;99.90;;;;;;5139274;27;20435;-61